createdAt,value
2023-06-16T00:02:50.805Z,18.56
2023-06-16T00:05:56.438Z,18.70
2023-06-16T00:09:02.025Z,18.78
2023-06-16T00:12:07.631Z,18.78
2023-06-16T00:15:13.685Z,18.74
2023-06-16T00:18:18.380Z,18.65
2023-06-16T00:21:28.558Z,18.67
2023-06-16T00:24:34.205Z,18.65
2023-06-16T00:27:38.812Z,18.54
2023-06-16T00:30:45.657Z,18.57
2023-06-16T00:33:50.358Z,18.43
2023-06-16T00:36:55.429Z,18.45
2023-06-16T00:39:59.985Z,18.42
2023-06-16T00:43:05.016Z,18.31
2023-06-16T00:46:13.528Z,18.33
2023-06-16T00:49:18.319Z,18.30
2023-06-16T00:52:26.623Z,18.27
2023-06-16T00:55:32.191Z,18.17
2023-06-16T00:58:36.941Z,18.09
2023-06-16T01:01:42.872Z,18.10
2023-06-16T01:04:48.797Z,18.17
2023-06-16T01:08:00.430Z,18.12
2023-06-16T01:11:08.973Z,18.08
2023-06-16T01:14:18.443Z,18.01
2023-06-16T01:17:25.994Z,18.04
2023-06-16T01:20:40.842Z,18.00
2023-06-16T01:24:03.880Z,17.91
2023-06-16T01:27:09.711Z,17.93
2023-06-16T01:30:15.379Z,17.89
2023-06-16T01:33:21.839Z,17.74
2023-06-16T01:36:27.125Z,17.70
2023-06-16T01:39:33.525Z,17.59
2023-06-16T01:42:39.347Z,17.58
2023-06-16T01:45:44.336Z,17.69
2023-06-16T01:48:49.046Z,17.56
2023-06-16T01:51:53.594Z,17.53
2023-06-16T01:54:59.562Z,17.56
2023-06-16T01:58:05.436Z,17.59
2023-06-16T02:01:12.974Z,17.65
2023-06-16T02:04:19.782Z,17.64
2023-06-16T02:07:31.585Z,17.57
2023-06-16T02:10:37.727Z,17.46
2023-06-16T02:13:42.397Z,17.47
2023-06-16T02:16:46.986Z,17.48
2023-06-16T02:19:52.839Z,17.49
2023-06-16T02:22:57.683Z,17.44
2023-06-16T02:26:03.557Z,17.38
2023-06-16T02:29:08.186Z,17.36
2023-06-16T02:32:12.963Z,17.44
2023-06-16T02:35:17.540Z,17.52
2023-06-16T02:38:24.031Z,17.40
2023-06-16T02:41:29.952Z,17.39
2023-06-16T02:44:34.582Z,17.43
2023-06-16T02:47:39.144Z,17.41
2023-06-16T02:50:43.724Z,17.48
2023-06-16T02:53:53.016Z,17.48
2023-06-16T02:57:00.030Z,17.38
2023-06-16T03:00:21.584Z,17.45
2023-06-16T03:04:04.913Z,17.53
2023-06-16T03:07:18.346Z,17.49
2023-06-16T03:10:24.016Z,17.45
2023-06-16T03:13:43.124Z,17.59
2023-06-16T03:16:49.248Z,17.62
2023-06-16T03:19:54.627Z,17.62
2023-06-16T03:23:08.600Z,17.67
2023-06-16T03:26:13.784Z,17.67
2023-06-16T03:29:55.082Z,17.75
2023-06-16T03:33:00.282Z,17.85
2023-06-16T03:36:06.340Z,17.87
2023-06-16T03:39:18.490Z,17.81
2023-06-16T03:42:23.514Z,17.88
2023-06-16T03:45:30.612Z,17.96
2023-06-16T03:48:35.626Z,18.03
2023-06-16T03:51:42.804Z,18.03
2023-06-16T03:54:49.153Z,18.08
2023-06-16T03:57:53.716Z,18.17
2023-06-16T04:00:59.714Z,18.24
2023-06-16T04:04:04.982Z,18.33
2023-06-16T04:07:10.329Z,18.47
2023-06-16T04:10:14.932Z,18.46
2023-06-16T04:13:19.651Z,18.51
2023-06-16T04:16:27.731Z,18.49
2023-06-16T04:19:34.998Z,18.55
2023-06-16T04:22:40.184Z,18.61
2023-06-16T04:25:46.193Z,18.64
2023-06-16T04:28:55.017Z,18.68
2023-06-16T04:32:02.854Z,18.70
2023-06-16T04:35:09.540Z,18.72
2023-06-16T04:38:15.323Z,18.80
2023-06-16T04:41:19.914Z,18.90
2023-06-16T04:44:25.862Z,18.93
2023-06-16T04:47:32.603Z,18.90
2023-06-16T04:50:37.834Z,19.01
2023-06-16T04:53:44.652Z,19.04
2023-06-16T04:56:49.196Z,19.08
2023-06-16T04:59:53.703Z,19.21
2023-06-16T05:02:59.986Z,19.27
2023-06-16T05:06:05.562Z,19.29
2023-06-16T05:09:10.373Z,19.43
2023-06-16T05:12:14.946Z,19.60
2023-06-16T05:15:19.568Z,19.72
2023-06-16T05:18:27.321Z,20.98
2023-06-16T05:21:32.014Z,28.18
2023-06-16T05:24:37.101Z,27.90
2023-06-16T05:27:42.827Z,23.28
2023-06-16T05:30:47.745Z,21.97
2023-06-16T05:33:55.545Z,21.45
2023-06-16T05:37:00.173Z,21.23
2023-06-16T05:40:06.848Z,21.29
2023-06-16T05:43:13.218Z,21.25
2023-06-16T05:46:17.812Z,21.45
2023-06-16T05:49:23.998Z,21.55
2023-06-16T05:52:28.702Z,21.64
2023-06-16T05:55:33.943Z,21.79
2023-06-16T05:58:39.037Z,21.86
2023-06-16T06:01:43.689Z,21.94
2023-06-16T06:04:50.263Z,22.02
2023-06-16T06:07:55.376Z,22.09
2023-06-16T06:11:02.534Z,22.16
2023-06-16T06:14:08.497Z,22.29
2023-06-16T06:17:14.645Z,22.44
2023-06-16T06:20:20.924Z,22.46
2023-06-16T06:23:25.870Z,22.63
2023-06-16T06:26:30.524Z,22.66
2023-06-16T06:29:35.233Z,22.58
2023-06-16T06:32:40.203Z,22.72
2023-06-16T06:35:47.405Z,22.84
2023-06-16T06:38:52.150Z,23.13
2023-06-16T06:41:57.336Z,23.10
2023-06-16T06:45:03.664Z,22.93
2023-06-16T06:48:09.716Z,23.00
2023-06-16T06:51:17.400Z,23.04
2023-06-16T06:54:22.018Z,23.33
2023-06-16T06:57:26.649Z,23.31
2023-06-16T07:00:31.201Z,23.76
2023-06-16T07:03:36.017Z,23.87
2023-06-16T07:06:42.242Z,23.80
2023-06-16T07:09:47.161Z,23.71
2023-06-16T07:12:51.731Z,23.62
2023-06-16T07:15:56.402Z,23.68
2023-06-16T07:19:02.787Z,23.73
2023-06-16T07:22:09.123Z,23.86
2023-06-16T07:25:13.773Z,23.95
2023-06-16T07:28:18.588Z,24.00
2023-06-16T07:31:23.169Z,24.01
2023-06-16T07:34:27.926Z,23.94
2023-06-16T07:37:33.928Z,24.18
2023-06-16T07:40:38.460Z,24.31
2023-06-16T07:43:43.026Z,24.29
2023-06-16T07:46:47.655Z,24.44
2023-06-16T07:49:52.245Z,24.38
2023-06-16T07:52:58.189Z,24.55
2023-06-16T07:56:03.895Z,24.66
2023-06-16T07:59:08.626Z,24.64
2023-06-16T08:02:13.213Z,24.87
2023-06-16T08:05:19.268Z,25.07
2023-06-16T08:08:28.729Z,25.15
2023-06-16T08:11:33.495Z,25.05
2023-06-16T08:14:38.131Z,25.20
2023-06-16T08:17:43.948Z,25.23
2023-06-16T08:20:48.548Z,25.24
2023-06-16T08:23:54.752Z,25.14
2023-06-16T08:27:00.882Z,25.28
2023-06-16T08:30:06.069Z,25.38
2023-06-16T08:33:11.310Z,25.38
2023-06-16T08:36:16.282Z,25.37
2023-06-16T08:39:22.969Z,25.31
2023-06-16T08:42:27.726Z,25.33
2023-06-16T08:45:32.235Z,25.19
2023-06-16T08:48:38.203Z,25.23
2023-06-16T08:51:43.614Z,24.95
2023-06-16T08:54:50.477Z,24.93
2023-06-16T08:57:55.655Z,24.89
2023-06-16T09:01:01.145Z,25.02
2023-06-16T09:04:06.027Z,24.76
2023-06-16T09:07:11.333Z,24.76
2023-06-16T09:10:17.782Z,24.92
2023-06-16T09:13:23.270Z,24.99
2023-06-16T09:16:28.682Z,24.99
2023-06-16T09:19:35.512Z,24.92
2023-06-16T09:22:40.393Z,24.99
2023-06-16T09:25:46.342Z,24.96
2023-06-16T09:28:50.923Z,24.86
2023-06-16T09:31:56.027Z,24.98
2023-06-16T09:35:00.642Z,25.04
2023-06-16T09:38:06.574Z,25.08
2023-06-16T09:41:16.882Z,25.03
2023-06-16T09:44:21.936Z,25.09
2023-06-16T09:47:26.519Z,25.33
2023-06-16T09:50:32.997Z,25.32
2023-06-16T09:53:38.933Z,25.06
2023-06-16T09:56:45.428Z,25.02
2023-06-16T09:59:50.041Z,24.93
2023-06-16T10:02:57.266Z,24.98
2023-06-16T10:06:07.663Z,24.97
2023-06-16T10:09:13.094Z,25.11
2023-06-16T10:12:20.867Z,25.17
2023-06-16T10:15:28.053Z,25.23
2023-06-16T10:18:33.638Z,25.14
2023-06-16T10:21:38.543Z,25.01
2023-06-16T10:24:43.145Z,25.05
2023-06-16T10:27:49.873Z,25.09
2023-06-16T10:30:54.632Z,25.18
2023-06-16T10:34:00.809Z,25.12
2023-06-16T10:37:05.933Z,25.20
2023-06-16T10:40:15.746Z,25.24
2023-06-16T10:43:27.785Z,25.20
2023-06-16T10:46:32.464Z,25.31
2023-06-16T10:49:46.641Z,25.30
2023-06-16T10:52:54.900Z,25.37
2023-06-16T10:56:06.924Z,25.38
2023-06-16T10:59:18.682Z,25.40
2023-06-16T11:02:24.595Z,25.44
2023-06-16T11:05:39.306Z,25.55
2023-06-16T11:08:54.888Z,25.41
2023-06-16T11:12:01.148Z,25.33
2023-06-16T11:15:10.230Z,25.43
2023-06-16T11:18:17.707Z,25.66
2023-06-16T11:21:22.475Z,25.70
2023-06-16T11:24:27.132Z,25.50
2023-06-16T11:27:32.072Z,25.31
2023-06-16T11:30:40.223Z,25.58
2023-06-16T11:33:45.227Z,25.60
2023-06-16T11:36:51.283Z,25.63
2023-06-16T11:40:00.115Z,25.87
2023-06-16T11:43:06.593Z,25.88
2023-06-16T11:46:13.173Z,26.11
2023-06-16T11:49:18.475Z,26.21
2023-06-16T11:52:24.075Z,25.97
2023-06-16T11:55:30.140Z,25.93
2023-06-16T11:58:35.371Z,25.92
2023-06-16T12:01:41.359Z,25.96
2023-06-16T12:04:47.050Z,26.09
2023-06-16T12:07:52.472Z,26.10
2023-06-16T12:10:59.276Z,26.02
2023-06-16T12:14:03.954Z,26.13
2023-06-16T12:17:10.651Z,26.21
2023-06-16T12:20:16.276Z,26.23
2023-06-16T12:23:21.184Z,26.13
2023-06-16T12:26:30.674Z,26.03
2023-06-16T12:29:35.373Z,26.04
2023-06-16T12:32:43.462Z,26.08
2023-06-16T12:35:48.858Z,26.10
2023-06-16T12:38:54.990Z,26.11
2023-06-16T12:42:01.120Z,26.19
2023-06-16T12:45:07.641Z,26.31
2023-06-16T12:48:13.712Z,26.49
2023-06-16T12:51:19.294Z,26.62
2023-06-16T12:54:24.673Z,26.65
2023-06-16T12:57:29.570Z,26.49
2023-06-16T13:00:36.376Z,26.51
2023-06-16T13:03:48.459Z,26.54
2023-06-16T13:06:53.388Z,26.72
2023-06-16T13:09:58.150Z,26.73
2023-06-16T13:13:03.454Z,26.91
2023-06-16T13:16:08.168Z,26.85
2023-06-16T13:19:14.156Z,26.77
2023-06-16T13:22:19.086Z,26.54
2023-06-16T13:25:23.748Z,26.73
2023-06-16T13:28:28.315Z,28.87
2023-06-16T13:31:32.904Z,30.33
2023-06-16T13:34:38.850Z,31.40
2023-06-16T13:37:43.465Z,32.39
2023-06-16T13:40:48.111Z,29.93
2023-06-16T13:43:54.240Z,29.16
2023-06-16T13:46:58.874Z,28.73
2023-06-16T13:50:04.928Z,29.51
2023-06-16T13:53:09.501Z,29.65
2023-06-16T13:56:14.699Z,29.18
2023-06-16T13:59:19.691Z,29.91
2023-06-16T14:02:24.333Z,30.45
2023-06-16T14:05:30.289Z,30.12
2023-06-16T14:08:35.223Z,29.76
2023-06-16T14:11:39.743Z,29.38
2023-06-16T14:14:44.591Z,28.88
2023-06-16T14:17:49.308Z,28.17
2023-06-16T14:20:55.617Z,27.86
2023-06-16T14:24:00.436Z,27.71
2023-06-16T14:27:05.283Z,27.38
2023-06-16T14:30:11.479Z,27.13
2023-06-16T14:33:16.177Z,27.39
2023-06-16T14:36:22.125Z,27.38
2023-06-16T14:39:26.885Z,27.42
2023-06-16T14:42:31.498Z,27.43
2023-06-16T14:45:36.082Z,27.40
2023-06-16T14:48:40.863Z,27.33
2023-06-16T14:51:46.854Z,27.00
2023-06-16T14:54:51.480Z,26.91
2023-06-16T14:57:58.721Z,26.73
2023-06-16T15:01:03.220Z,26.63
2023-06-16T15:04:07.951Z,26.49
2023-06-16T15:07:14.085Z,26.63
2023-06-16T15:10:19.220Z,26.58
2023-06-16T15:13:24.040Z,26.47
2023-06-16T15:16:28.578Z,26.52
2023-06-16T15:19:33.238Z,26.35
2023-06-16T15:22:39.219Z,26.40
2023-06-16T15:25:43.702Z,26.38
2023-06-16T15:28:48.350Z,26.53
2023-06-16T15:31:54.000Z,26.72
2023-06-16T15:34:58.647Z,26.45
2023-06-16T15:38:04.605Z,26.36
2023-06-16T15:41:09.407Z,26.23
2023-06-16T15:44:13.986Z,26.16
2023-06-16T15:47:18.658Z,25.99
2023-06-16T15:50:23.228Z,25.98
2023-06-16T15:53:29.093Z,25.94
2023-06-16T15:56:34.276Z,25.97
2023-06-16T15:59:38.889Z,25.89
2023-06-16T16:02:43.663Z,25.96
2023-06-16T16:05:48.294Z,25.93
2023-06-16T16:08:54.194Z,26.04
2023-06-16T16:11:58.791Z,26.00
2023-06-16T16:15:05.317Z,25.94
2023-06-16T16:18:11.423Z,25.74
2023-06-16T16:21:16.744Z,25.82
2023-06-16T16:24:22.815Z,25.92
2023-06-16T16:27:29.138Z,25.79
2023-06-16T16:30:33.701Z,25.85
2023-06-16T16:33:38.298Z,25.68
2023-06-16T16:36:43.216Z,25.69
2023-06-16T16:39:49.174Z,25.49
2023-06-16T16:42:53.760Z,25.69
2023-06-16T16:45:58.313Z,25.58
2023-06-16T16:49:03.034Z,25.54
2023-06-16T16:52:08.574Z,25.54
2023-06-16T16:55:30.014Z,25.64
2023-06-16T16:58:39.946Z,25.46
2023-06-16T17:01:45.671Z,25.55
2023-06-16T17:04:50.294Z,25.51
2023-06-16T17:07:54.839Z,25.50
2023-06-16T17:11:03.880Z,25.43
2023-06-16T17:14:08.568Z,25.35
2023-06-16T17:17:13.056Z,25.34
2023-06-16T17:20:17.918Z,25.17
2023-06-16T17:23:22.629Z,25.26
2023-06-16T17:26:28.572Z,25.40
2023-06-16T17:29:33.141Z,25.24
2023-06-16T17:32:37.809Z,25.09
2023-06-16T17:35:42.323Z,25.11
2023-06-16T17:38:46.887Z,25.25
2023-06-16T17:41:54.966Z,25.29
2023-06-16T17:45:00.790Z,25.20
2023-06-16T17:48:06.794Z,25.28
2023-06-16T17:51:11.579Z,25.26
2023-06-16T17:54:16.194Z,25.12
2023-06-16T17:57:22.280Z,25.07
2023-06-16T18:00:26.808Z,24.97
2023-06-16T18:03:31.811Z,24.96
2023-06-16T18:06:36.393Z,25.05
2023-06-16T18:09:40.902Z,24.81
2023-06-16T18:12:46.795Z,24.85
2023-06-16T18:15:51.397Z,24.71
2023-06-16T18:18:56.006Z,24.71
2023-06-16T18:22:01.335Z,24.65
2023-06-16T18:25:06.535Z,24.61
2023-06-16T18:28:12.471Z,24.59
2023-06-16T18:31:17.321Z,24.62
2023-06-16T18:34:21.949Z,24.47
2023-06-16T18:37:26.515Z,24.26
2023-06-16T18:40:31.488Z,24.28
2023-06-16T18:43:37.728Z,24.29
2023-06-16T18:46:42.274Z,24.30
2023-06-16T18:49:46.782Z,24.24
2023-06-16T18:52:51.600Z,24.16
2023-06-16T18:55:56.103Z,24.16
2023-06-16T18:59:01.981Z,23.89
2023-06-16T19:02:06.780Z,24.00
2023-06-16T19:05:13.961Z,23.78
2023-06-16T19:08:18.724Z,23.83
2023-06-16T19:11:23.360Z,23.70
2023-06-16T19:14:29.874Z,23.79
2023-06-16T19:17:34.467Z,23.91
2023-06-16T19:20:39.101Z,23.73
2023-06-16T19:23:44.515Z,23.50
2023-06-16T19:26:49.130Z,23.44
2023-06-16T19:29:56.499Z,23.44
2023-06-16T19:33:01.387Z,23.51
2023-06-16T19:36:07.181Z,23.59
2023-06-16T19:39:12.013Z,23.55
2023-06-16T19:42:16.728Z,23.45
2023-06-16T19:45:24.087Z,23.44
2023-06-16T19:48:28.593Z,23.40
2023-06-16T19:51:33.093Z,23.44
2023-06-16T19:54:37.675Z,23.32
2023-06-16T19:57:42.699Z,23.35
2023-06-16T20:00:48.850Z,23.20
2023-06-16T20:03:53.355Z,23.15
2023-06-16T20:06:58.349Z,23.16
2023-06-16T20:10:02.867Z,23.05
2023-06-16T20:13:09.515Z,22.94
2023-06-16T20:16:15.980Z,22.85
2023-06-16T20:19:22.020Z,22.85
2023-06-16T20:22:26.610Z,22.82
2023-06-16T20:25:31.152Z,22.79
2023-06-16T20:28:35.951Z,22.59
2023-06-16T20:31:41.944Z,22.52
2023-06-16T20:34:48.079Z,22.47
2023-06-16T20:37:52.648Z,22.49
2023-06-16T20:40:57.911Z,22.38
2023-06-16T20:44:04.749Z,22.35
2023-06-16T20:47:11.424Z,22.27
2023-06-16T20:50:17.321Z,22.14
2023-06-16T20:53:22.446Z,22.05
2023-06-16T20:56:27.837Z,22.03
2023-06-16T20:59:32.604Z,21.98
2023-06-16T21:02:39.690Z,21.98
2023-06-16T21:05:47.637Z,21.93
2023-06-16T21:09:02.061Z,21.99
2023-06-16T21:12:07.596Z,21.98
2023-06-16T21:15:13.162Z,21.93
2023-06-16T21:18:19.120Z,21.91
2023-06-16T21:21:23.924Z,21.81
2023-06-16T21:24:28.824Z,21.83
2023-06-16T21:27:34.307Z,21.79
2023-06-16T21:30:39.520Z,21.67
2023-06-16T21:33:45.520Z,21.62
2023-06-16T21:36:51.703Z,21.67
2023-06-16T21:40:16.846Z,21.50
2023-06-16T21:43:21.407Z,21.56
2023-06-16T21:46:26.154Z,21.50
2023-06-16T21:49:32.150Z,21.34
2023-06-16T21:52:36.853Z,21.38
2023-06-16T21:55:41.405Z,21.37
2023-06-16T21:58:46.019Z,21.32
2023-06-16T22:01:50.794Z,21.21
2023-06-16T22:04:56.902Z,21.14
2023-06-16T22:08:01.402Z,20.98
2023-06-16T22:11:07.157Z,20.95
2023-06-16T22:14:12.626Z,20.87
2023-06-16T22:17:18.396Z,20.79
2023-06-16T22:20:24.320Z,20.72
2023-06-16T22:23:29.103Z,20.60
2023-06-16T22:26:33.788Z,20.55
2023-06-16T22:29:39.470Z,20.50
2023-06-16T22:32:44.099Z,20.47
2023-06-16T22:35:50.019Z,20.41
2023-06-16T22:38:54.782Z,20.30
2023-06-16T22:41:59.504Z,20.25
2023-06-16T22:45:04.480Z,20.22
2023-06-16T22:48:13.080Z,20.10
2023-06-16T22:51:20.377Z,20.05
2023-06-16T22:54:24.902Z,20.06
2023-06-16T22:57:29.499Z,19.97
2023-06-16T23:00:33.961Z,19.92
2023-06-16T23:03:38.506Z,19.82
2023-06-16T23:06:46.325Z,19.72
2023-06-16T23:09:50.919Z,19.66
2023-06-16T23:12:55.441Z,19.61
2023-06-16T23:16:00.775Z,19.63
2023-06-16T23:19:05.396Z,19.54
2023-06-16T23:22:11.318Z,19.52
2023-06-16T23:25:16.411Z,19.49
2023-06-16T23:28:21.220Z,19.49
2023-06-16T23:31:26.235Z,19.45
2023-06-16T23:34:31.243Z,19.42
2023-06-16T23:37:37.784Z,19.29
2023-06-16T23:40:42.315Z,19.30
2023-06-16T23:43:47.081Z,19.29
2023-06-16T23:46:51.673Z,19.29
2023-06-16T23:49:56.314Z,19.22
2023-06-16T23:53:02.586Z,19.14
2023-06-16T23:56:07.431Z,19.14
2023-06-16T23:59:12.362Z,19.10
